createdAt,value
2023-05-23T00:00:52.081Z,47.39
2023-05-23T00:05:56.520Z,47.44
2023-05-23T00:11:00.835Z,47.63
2023-05-23T00:16:04.617Z,47.75
2023-05-23T00:21:07.783Z,47.88
2023-05-23T00:26:11.964Z,47.73
2023-05-23T00:31:19.226Z,48.32
2023-05-23T00:36:24.252Z,48.18
2023-05-23T00:41:30.525Z,48.04
2023-05-23T00:46:33.908Z,48.14
2023-05-23T00:51:37.198Z,48.29
2023-05-23T00:56:41.372Z,48.17
2023-05-23T01:01:47.753Z,48.30
2023-05-23T01:06:50.565Z,48.46
2023-05-23T01:12:00.352Z,48.63
2023-05-23T01:17:06.251Z,48.86
2023-05-23T01:22:13.144Z,48.95
2023-05-23T01:27:21.949Z,49.09
2023-05-23T01:32:26.559Z,49.30
2023-05-23T01:37:29.771Z,49.11
2023-05-23T01:42:32.708Z,49.58
2023-05-23T01:47:37.039Z,49.55
2023-05-23T01:52:40.476Z,49.45
2023-05-23T01:57:43.285Z,49.85
2023-05-23T02:02:47.701Z,50.01
2023-05-23T02:07:52.839Z,50.22
2023-05-23T02:12:55.786Z,50.25
2023-05-23T02:18:00.020Z,50.31
2023-05-23T02:23:02.941Z,50.24
2023-05-23T02:28:05.849Z,50.38
2023-05-23T02:33:10.874Z,50.46
2023-05-23T02:38:13.861Z,50.56
2023-05-23T02:43:18.002Z,50.67
2023-05-23T02:48:22.371Z,50.64
2023-05-23T02:53:27.124Z,50.63
2023-05-23T02:58:31.854Z,50.87
2023-05-23T03:03:36.511Z,51.01
2023-05-23T03:08:39.524Z,51.22
2023-05-23T03:13:42.412Z,51.05
2023-05-23T03:18:46.688Z,51.29
2023-05-23T03:23:50.245Z,51.43
2023-05-23T03:28:53.174Z,51.41
2023-05-23T03:33:57.468Z,51.27
2023-05-23T03:39:00.476Z,51.58
2023-05-23T03:44:03.997Z,51.58
2023-05-23T03:49:08.640Z,51.49
2023-05-23T03:54:12.288Z,51.45
2023-05-23T03:59:15.210Z,51.33
2023-05-23T04:04:21.070Z,51.40
2023-05-23T04:09:25.450Z,51.41
2023-05-23T04:14:29.982Z,51.34
2023-05-23T04:19:36.175Z,51.39
2023-05-23T04:24:39.353Z,51.32
2023-05-23T04:29:42.289Z,51.37
2023-05-23T04:34:46.967Z,51.35
2023-05-23T04:39:50.227Z,51.23
2023-05-23T04:45:05.121Z,51.27
2023-05-23T04:50:31.720Z,51.20
2023-05-23T04:55:35.063Z,51.42
2023-05-23T05:00:39.238Z,51.18
2023-05-23T05:05:43.804Z,51.40
2023-05-23T05:10:46.722Z,51.27
2023-05-23T05:15:52.784Z,51.37
2023-05-23T05:20:57.545Z,51.18
2023-05-23T05:26:00.619Z,51.35
2023-05-23T05:31:05.334Z,51.15
2023-05-23T05:36:12.528Z,51.30
2023-05-23T05:41:16.605Z,51.10
2023-05-23T05:46:23.900Z,51.19
2023-05-23T05:51:29.797Z,51.20
2023-05-23T05:56:32.962Z,51.09
2023-05-23T06:01:35.841Z,51.27
2023-05-23T06:06:40.108Z,51.30
2023-05-23T06:11:43.291Z,51.20
2023-05-23T06:16:46.466Z,51.21
2023-05-23T06:21:51.478Z,51.21
2023-05-23T06:26:55.512Z,50.99
2023-05-23T06:31:58.573Z,50.70
2023-05-23T06:37:03.058Z,50.51
2023-05-23T06:42:06.466Z,50.64
2023-05-23T06:47:25.627Z,50.62
2023-05-23T06:52:29.821Z,50.67
2023-05-23T06:57:33.269Z,50.76
2023-05-23T07:02:36.241Z,50.80
2023-05-23T07:07:43.464Z,50.84
2023-05-23T07:12:46.615Z,50.94
2023-05-23T07:17:51.165Z,51.09
2023-05-23T07:22:55.990Z,51.19
2023-05-23T07:27:59.768Z,51.38
2023-05-23T07:33:03.132Z,51.33
2023-05-23T07:38:08.180Z,51.59
2023-05-23T07:43:11.770Z,51.26
2023-05-23T07:48:14.696Z,51.26
2023-05-23T07:53:20.098Z,51.25
2023-05-23T07:58:23.219Z,50.92
2023-05-23T08:03:26.417Z,50.77
2023-05-23T08:08:41.269Z,48.88
2023-05-23T08:13:44.981Z,48.58
2023-05-23T08:19:11.280Z,48.93
2023-05-23T08:24:15.942Z,50.41
2023-05-23T08:29:20.358Z,51.14
2023-05-23T08:34:23.593Z,52.27
2023-05-23T08:39:27.930Z,54.57
2023-05-23T08:44:45.022Z,56.48
2023-05-23T08:49:48.115Z,57.47
2023-05-23T08:54:53.231Z,59.31
2023-05-23T08:59:56.443Z,58.41
2023-05-23T09:05:00.311Z,57.62
2023-05-23T09:10:06.184Z,59.48
2023-05-23T09:15:10.666Z,58.66
2023-05-23T09:20:14.668Z,57.83
2023-05-23T09:25:24.923Z,58.06
2023-05-23T09:30:28.009Z,57.52
2023-05-23T09:35:32.355Z,56.92
2023-05-23T09:40:37.171Z,56.89
2023-05-23T09:45:40.491Z,56.20
2023-05-23T09:50:43.457Z,55.57
2023-05-23T09:55:47.850Z,58.79
2023-05-23T10:00:51.356Z,57.93
2023-05-23T10:05:57.284Z,56.25
2023-05-23T10:11:32.939Z,56.02
2023-05-23T10:16:40.791Z,55.84
2023-05-23T10:21:46.861Z,55.15
2023-05-23T10:26:49.851Z,55.75
2023-05-23T10:31:54.058Z,55.66
2023-05-23T10:37:00.951Z,55.02
2023-05-23T10:42:07.214Z,55.80
2023-05-23T10:47:13.016Z,55.66
2023-05-23T10:52:18.201Z,56.08
2023-05-23T10:57:21.700Z,56.93
2023-05-23T11:02:29.776Z,57.49
2023-05-23T11:07:33.250Z,58.46
2023-05-23T11:12:40.046Z,61.05
2023-05-23T11:17:51.354Z,60.00
2023-05-23T11:22:54.737Z,59.42
2023-05-23T11:27:57.560Z,59.26
2023-05-23T11:33:01.916Z,58.82
2023-05-23T11:38:05.229Z,58.62
2023-05-23T11:43:09.323Z,58.45
2023-05-23T11:48:13.940Z,58.92
2023-05-23T11:53:18.768Z,58.32
2023-05-23T11:58:22.691Z,57.86
2023-05-23T12:03:27.167Z,58.47
2023-05-23T12:08:30.358Z,59.59
2023-05-23T12:13:33.376Z,59.35
2023-05-23T12:18:41.137Z,58.50
2023-05-23T12:23:44.366Z,57.15
2023-05-23T12:28:47.186Z,56.61
2023-05-23T12:33:54.120Z,55.84
2023-05-23T12:38:57.078Z,55.48
2023-05-23T12:44:00.529Z,55.56
2023-05-23T12:49:04.892Z,55.17
2023-05-23T12:54:09.275Z,55.23
2023-05-23T12:59:12.139Z,54.99
2023-05-23T13:04:16.947Z,54.85
2023-05-23T13:09:21.215Z,56.09
2023-05-23T13:14:24.381Z,56.10
2023-05-23T13:19:32.977Z,56.18
2023-05-23T13:24:47.049Z,55.96
2023-05-23T13:29:51.803Z,56.00
2023-05-23T13:34:56.610Z,56.08
2023-05-23T13:39:59.539Z,55.95
2023-05-23T13:45:05.406Z,55.93
2023-05-23T13:50:11.228Z,56.08
2023-05-23T13:55:14.255Z,55.99
2023-05-23T14:00:17.552Z,55.86
2023-05-23T14:05:22.570Z,55.96
2023-05-23T14:10:29.987Z,55.95
2023-05-23T14:15:34.617Z,55.74
2023-05-23T14:20:39.205Z,55.79
2023-05-23T14:25:42.703Z,55.55
2023-05-23T14:30:50.873Z,55.19
2023-05-23T14:35:55.696Z,54.93
2023-05-23T14:40:59.902Z,55.04
2023-05-23T14:46:03.219Z,54.91
2023-05-23T14:51:07.623Z,54.86
2023-05-23T14:56:10.746Z,55.27
2023-05-23T15:01:13.891Z,55.33
2023-05-23T15:06:18.489Z,55.02
2023-05-23T15:11:21.714Z,54.93
2023-05-23T15:16:25.417Z,55.03
2023-05-23T15:21:32.459Z,55.11
2023-05-23T15:26:36.554Z,55.07
2023-05-23T15:31:48.021Z,54.53
2023-05-23T15:36:56.310Z,54.21
2023-05-23T15:42:13.525Z,54.06
2023-05-23T15:47:22.975Z,53.93
2023-05-23T15:52:27.206Z,53.75
2023-05-23T15:57:30.394Z,53.62
2023-05-23T16:02:33.288Z,53.32
2023-05-23T16:07:37.501Z,53.31
2023-05-23T16:12:40.508Z,52.75
2023-05-23T16:17:43.474Z,52.46
2023-05-23T16:22:48.154Z,52.29
2023-05-23T16:27:51.092Z,52.36
2023-05-23T16:32:53.925Z,52.08
2023-05-23T16:37:58.113Z,52.23
2023-05-23T16:43:02.739Z,52.28
2023-05-23T16:48:06.506Z,52.00
2023-05-23T16:53:11.953Z,51.99
2023-05-23T16:58:14.907Z,51.73
2023-05-23T17:03:18.178Z,51.29
2023-05-23T17:08:22.623Z,50.80
2023-05-23T17:13:26.110Z,51.36
2023-05-23T17:18:28.947Z,51.03
2023-05-23T17:23:33.459Z,50.57
2023-05-23T17:28:36.257Z,50.94
2023-05-23T17:33:39.085Z,50.92
2023-05-23T17:38:43.649Z,50.90
2023-05-23T17:43:46.646Z,51.00
2023-05-23T17:48:49.755Z,51.33
2023-05-23T17:53:54.890Z,50.98
2023-05-23T17:58:57.862Z,50.92
2023-05-23T18:04:01.346Z,50.84
2023-05-23T18:09:06.145Z,51.05
2023-05-23T18:14:09.077Z,50.92
2023-05-23T18:19:12.460Z,51.14
2023-05-23T18:24:17.044Z,51.04
2023-05-23T18:29:20.622Z,51.12
2023-05-23T18:34:23.414Z,51.17
2023-05-23T18:39:27.681Z,51.18
2023-05-23T18:44:31.469Z,51.31
2023-05-23T18:49:34.668Z,51.15
2023-05-23T18:54:39.087Z,50.95
2023-05-23T18:59:42.365Z,51.03
2023-05-23T19:04:45.281Z,51.14
2023-05-23T19:09:49.863Z,51.12
2023-05-23T19:14:52.816Z,51.01
2023-05-23T19:19:56.295Z,50.97
2023-05-23T19:25:00.711Z,50.70
2023-05-23T19:30:03.759Z,50.78
2023-05-23T19:35:08.192Z,50.64
2023-05-23T19:40:13.432Z,50.56
2023-05-23T19:45:17.023Z,50.99
2023-05-23T19:50:21.800Z,50.67
2023-05-23T19:55:26.466Z,50.04
2023-05-23T20:00:32.038Z,50.02
2023-05-23T20:05:37.057Z,50.61
2023-05-23T20:10:43.230Z,50.69
2023-05-23T20:15:46.459Z,50.07
2023-05-23T20:20:49.315Z,50.40
2023-05-23T20:25:53.598Z,50.15
2023-05-23T20:30:56.730Z,50.02
2023-05-23T20:35:59.621Z,50.15
2023-05-23T20:41:06.414Z,50.44
2023-05-23T20:46:10.114Z,50.25
2023-05-23T20:51:13.527Z,50.13
2023-05-23T20:56:18.140Z,50.37
2023-05-23T21:01:23.056Z,50.37
2023-05-23T21:06:25.990Z,50.43
2023-05-23T21:11:30.185Z,50.27
2023-05-23T21:16:33.450Z,50.65
2023-05-23T21:21:37.482Z,50.45
2023-05-23T21:26:41.645Z,50.13
2023-05-23T21:31:44.622Z,50.69
2023-05-23T21:36:47.479Z,50.52
2023-05-23T21:41:52.006Z,50.02
2023-05-23T21:46:54.950Z,50.74
2023-05-23T21:51:57.784Z,50.46
2023-05-23T21:57:01.985Z,50.71
2023-05-23T22:02:05.539Z,50.78
2023-05-23T22:07:08.478Z,51.06
2023-05-23T22:12:13.628Z,51.02
2023-05-23T22:17:17.791Z,50.93
2023-05-23T22:22:20.679Z,51.04
2023-05-23T22:27:24.854Z,50.75
2023-05-23T22:32:27.790Z,50.76
2023-05-23T22:37:30.620Z,50.81
2023-05-23T22:42:34.933Z,51.13
2023-05-23T22:47:37.719Z,50.99
2023-05-23T22:52:40.533Z,51.32
2023-05-23T22:57:44.700Z,51.61
2023-05-23T23:02:47.628Z,51.95
2023-05-23T23:07:50.476Z,52.20
2023-05-23T23:12:54.884Z,52.23
2023-05-23T23:17:57.704Z,52.48
2023-05-23T23:23:00.598Z,52.62
2023-05-23T23:28:05.051Z,52.67
2023-05-23T23:33:07.942Z,52.73
2023-05-23T23:38:10.863Z,52.93
2023-05-23T23:43:15.019Z,52.98
2023-05-23T23:48:17.875Z,52.95
2023-05-23T23:53:21.826Z,53.21
2023-05-23T23:58:26.105Z,53.44
